Flight Track Log - Related Links

Times and Time Zones

All times are in EDT time to prevent confusion due to time zone crossing. See the ASQ4577 flight status page for this flight to view local times or setup timezone preferences in your user account.

Time Position Orientation Groundspeed Altitude Reporting Facility
EDT Latitude Longitude Course Direction KTS MPH feet Rate Location/Type
Mon 07:06:41 PM 41.4194 -81.8375 28° Northeast 163 188 1,900  Level Cleveland Center
Mon 07:07:36 PM 41.4697 -81.8025 28° Northeast 237 273 3,200 1,789 Climbing Cleveland Center
Mon 07:08:35 PM 41.5308 -81.7508 32° Northeast 280 322 5,300 2,370 Climbing Cleveland Center
Mon 07:09:35 PM 41.5919 -81.6881 38° Northeast 279 321 7,900 2,800 Climbing Cleveland Center
Mon 07:10:35 PM 41.6508 -81.6253 39° Northeast 268 308 10,900 2,050 Climbing Cleveland Center
Mon 07:11:35 PM 41.6767 -81.5228 71° East 275 316 12,000 1,050 Climbing Cleveland Center
Mon 07:12:35 PM 41.7006 -81.4008 75° East 308 354 13,000 1,000 Climbing Cleveland Center
Mon 07:13:35 PM 41.7222 -81.2703 77° East 350 403 14,000 900 Climbing Cleveland Center
Mon 07:14:35 PM 41.7417 -81.1508 78° East 364 419 14,800 850 Climbing Cleveland Center
Mon 07:15:35 PM 41.7675 -81.0092 76° East 381 438 15,700 1,100 Climbing Cleveland Center
Mon 07:16:35 PM 41.7908 -80.8728 77° East 375 432 17,000 1,250 Climbing Cleveland Center
Mon 07:17:35 PM 41.8119 -80.7364 78° East 370 426 18,200 1,400 Climbing Cleveland Center
Mon 07:18:35 PM 41.8369 -80.6083 75° East 370 426 19,800 1,500 Climbing Cleveland Center
Mon 07:19:35 PM 41.8975 -80.4967 54° Northeast 358 412 21,200 1,350 Climbing Cleveland Center
Mon 07:20:35 PM 41.9619 -80.3736 55° Northeast 358 412 22,500 1,350 Climbing Cleveland Center
Mon 07:21:35 PM 42.0261 -80.2617 52° Northeast 372 428 23,900 1,350 Climbing Cleveland Center
Mon 07:22:35 PM 42.0528 -80.1244 75° East 365 420 25,200 1,200 Climbing Cleveland Center
Mon 07:23:35 PM 42.0669 -80.0153 80° East 365 420 26,300 1,050 Climbing Cleveland Center
Mon 07:24:35 PM 42.0892 -79.8614 79° East 371 427 27,300 1,200 Climbing Cleveland Center
Mon 07:25:35 PM 42.1069 -79.7156 81° East 382 440 28,700 1,500 Climbing Cleveland Center
Mon 07:26:35 PM 42.1286 -79.5781 78° East 382 440 30,300 1,150 Climbing Cleveland Center
Mon 07:27:35 PM 42.1481 -79.4350 80° East 382 440 31,000 350 Climbing Cleveland Center
Mon 07:28:35 PM 42.1672 -79.2833 80° East 394 453 31,000  Level Cleveland Center
Mon 07:29:35 PM 42.1883 -79.1231 80° East 408 470 31,000  Level Cleveland Center
Mon 07:30:35 PM 42.2092 -78.9572 80° East 434 499 31,000  Level Cleveland Center
Mon 07:31:35 PM 42.2294 -78.7914 81° East 441 507 31,000  Level Cleveland Center
Mon 07:32:35 PM 42.2519 -78.6253 80° East 446 513 31,000  Level Cleveland Center
Mon 07:33:35 PM 42.2717 -78.4561 81° East 446 513 31,000  Level Cleveland Center
Mon 07:34:35 PM 42.2917 -78.2928 81° East 446 513 31,000  Level Cleveland Center
Mon 07:35:35 PM 42.3131 -78.1233 80° East 446 513 31,000  Level Cleveland Center
Mon 07:36:35 PM 42.3322 -77.9542 81° East 446 513 31,000  Level Cleveland Center
Mon 07:37:35 PM 42.3514 -77.7875 81° East 451 519 31,000  Level Cleveland Center
Mon 07:38:35 PM 42.3719 -77.6153 81° East 451 519 31,000  Level Cleveland Center
Mon 07:39:35 PM 42.3925 -77.4456 81° East 451 519 31,000  Level Cleveland Center
Mon 07:40:35 PM 42.4122 -77.2589 82° East 451 519 31,000 -183 Level Cleveland Center
Mon 07:42:52 PM 42.4556 -76.8731 81° East 450 518 30,400 -457 Descending Boston Center
Mon 07:43:52 PM 42.4744 -76.7081 81° East 450 518 29,500 -700 Descending Boston Center
Mon 07:44:52 PM 42.4931 -76.5433 81° East 445 512 29,000 -250 Descending Boston Center
Mon 07:45:52 PM 42.5086 -76.3978 82° East 445 512 29,000  Level Boston Center
Mon 07:46:52 PM 42.5250 -76.2183 83° East 445 512 29,000  Level Boston Center
Mon 07:47:52 PM 42.5411 -76.0475 83° East 445 512 29,000  Level Boston Center
Mon 07:48:52 PM 42.5589 -75.8792 82° East 445 512 29,000  Level Boston Center
Mon 07:49:52 PM 42.5764 -75.7111 82° East 445 512 29,000 -750 Level Boston Center
Mon 07:50:52 PM 42.5936 -75.5425 82° East 445 512 27,500 -2,050 Descending Boston Center
Mon 07:51:52 PM 42.6106 -75.3742 82° East 445 512 24,900 -2,750 Descending Boston Center
Mon 07:52:52 PM 42.6250 -75.2083 83° East 445 512 22,000 -2,850 Descending Boston Center
Mon 07:53:52 PM 42.6392 -75.0508 83° East 439 505 19,200 -2,600 Descending Boston Center
Mon 07:54:52 PM 42.6553 -74.8992 82° East 420 483 16,800 -2,750 Descending Boston Center
Mon 07:55:52 PM 42.6667 -74.7442 84° East 406 467 13,700 -2,700 Descending Boston Center
Mon 07:56:52 PM 42.6800 -74.6036 83° East 394 453 11,400 -1,397 Descending Boston Center
Mon 07:57:48 PM 42.6906 -74.4739 84° East 363 418 11,000 -541 Descending Boston Center
Mon 07:58:43 PM 42.6781 -74.3578 98° East 327 376 10,400 -982 Descending Boston Center
Mon 07:59:38 PM 42.6544 -74.2667 109° East 283 326 9,200 -1,617 Descending Boston Center
Mon 08:00:38 PM 42.6250 -74.1614 111° Southeast 277 319 7,300 -1,785 Descending Boston Center
Mon 08:01:39 PM 42.6203 -74.0597 94° East 263 303 5,600 -1,721 Descending Boston Center
Mon 08:02:40 PM 42.6217 -73.9608 89° East 260 299 3,800 -1,240 Descending Boston Center
Mon 08:03:40 PM 42.6269 -73.8764 85° East 223 257 3,100 -992 Descending Boston Center
Mon 08:04:47 PM 42.6567 -73.8150 57° Northeast 142 163 1,700 -1,254 Descending Boston Center

Login

Don't have an account? Register now (free) for customized features, flight alerts, and more!